EST,Max TemperatureF,Mean TemperatureF,Min TemperatureF,Max Dew PointF,MeanDew PointF,Min DewpointF,Max Humidity, Mean Humidity, Min Humidity, Max Sea Level PressureIn, Mean Sea Level PressureIn, Min Sea Level PressureIn, Max VisibilityMiles, Mean VisibilityMiles, Min VisibilityMiles, Max Wind SpeedMPH, Mean Wind SpeedMPH, Max Gust SpeedMPH,PrecipitationIn, CloudCover, Events, WindDirDegrees
2012-1-1,37,33,29,36,30,23,100,89,78,29.86,29.54,29.35,10,6,2,21,10,32,0.13,8,Rain-Snow,258
2012-1-2,29,21,12,21,14,4,88,75,62,30.16,29.90,29.62,10,5,0,25,15,38,0.07,7,Fog-Snow,315
2012-1-3,18,10,2,10,4,-3,88,75,61,30.35,30.21,30.07,10,6,1,24,8,30,0.04,6,Snow,321
2012-1-4,31,25,18,23,18,11,77,72,67,30.03,29.88,29.81,10,10,10,18,8,26,T,7,,253
2012-1-5,35,32,28,27,24,21,85,75,64,29.93,29.81,29.52,10,10,10,14,5,18,0.00,6,,231
2012-1-6,51,39,27,33,29,25,92,68,44,29.65,29.55,29.49,10,10,10,15,4,22,0.00,0,,240
2012-1-7,34,30,25,31,24,17,92,78,63,30.19,29.86,29.64,10,9,2,18,8,26,0.01,6,Snow,289
2012-1-8,35,28,21,34,20,17,92,74,56,30.32,30.24,30.16,10,10,8,14,5,18,T,7,Snow,233
2012-1-9,42,34,26,29,26,23,92,72,51,30.18,29.91,29.73,10,10,10,25,9,39,0.00,4,,227
2012-1-10,41,34,27,28,26,24,92,73,54,29.99,29.90,29.79,10,10,10,16,6,20,0.00,4,,194
2012-1-11,50,37,24,32,29,24,100,73,46,29.79,29.69,29.59,10,8,2,12,4,14,0.00,1,,154
2012-1-12,36,32,27,34,30,25,100,95,89,29.57,29.43,29.31,8,2,0,15,8,18,0.23,7,Fog-Rain-Snow,23
2012-1-13,27,19,10,25,14,5,92,83,73,29.98,29.57,29.30,10,3,0,21,12,25,0.22,8,Snow,332
2012-1-14,17,11,4,6,4,2,91,75,59,30.31,30.17,29.99,10,10,10,13,3,14,T,7,,356
2012-1-15,22,10,-3,17,9,-6,96,87,77,30.42,30.36,30.26,10,10,10,17,7,22,T,6,,184
2012-1-16,32,25,18,29,22,13,92,82,72,30.23,29.91,29.79,10,9,4,18,7,22,0.00,5,,196
2012-1-17,32,25,17,30,23,9,100,87,74,29.96,29.70,29.54,10,3,0,26,14,32,0.43,8,Fog-Rain-Snow,352
2012-1-18,20,14,7,13,9,5,84,76,67,30.22,30.08,29.88,10,8,2,17,9,26,0.02,7,Snow,239
2012-1-19,22,10,-2,19,11,-4,84,70,55,30.10,29.71,29.56,10,5,0,22,11,32,0.04,6,Fog-Snow,262
2012-1-20,15,7,-2,6,1,-4,87,70,53,30.25,30.19,30.12,10,10,10,13,5,18,0.00,3,,224
2012-1-21,23,10,-4,9,5,-6,91,72,52,30.32,30.24,30.17,10,10,10,10,3,14,0.00,2,,237
2012-1-22,31,19,6,28,19,2,92,80,67,30.28,30.04,29.81,10,9,2,22,10,26,T,4,Rain,159
2012-1-23,43,36,29,41,36,28,100,91,82,29.78,29.47,29.29,10,5,1,20,11,25,0.37,8,Rain-Thunderstorm,163
2012-1-24,35,30,24,31,21,13,82,71,60,30.30,29.93,29.56,10,7,1,20,11,31,T,8,Snow,276
2012-1-25,31,24,16,23,20,14,96,83,69,30.38,30.30,30.20,10,10,10,10,4,17,0.00,5,,199
2012-1-26,33,23,13,32,26,11,100,89,78,30.17,29.85,29.60,10,5,0,16,6,20,0.00,7,Fog,151
2012-1-27,38,33,27,31,26,20,100,76,52,29.87,29.67,29.53,10,7,0,18,6,26,T,6,Fog-Snow,282
2012-1-28,34,29,24,30,23,15,100,77,54,29.86,29.71,29.55,10,4,0,21,9,32,0.10,8,Fog-Snow,246
2012-1-29,28,24,20,19,15,11,73,65,57,30.14,29.93,29.83,10,8,1,16,7,24,T,8,Snow,261
2012-1-30,26,15,4,23,17,1,92,79,65,30.19,30.04,29.89,10,6,0,16,5,22,0.11,7,Fog-Snow,158
2012-1-31,46,31,15,38,26,13,100,86,71,29.89,29.77,29.63,10,6,0,12,3,18,0.00,3,Fog,201